This is the latest recevied weather packets stored in our database for station/object YO8SDE-8. If no packets are shown the sender has not sent any weather packets the latest 10 day(s).
| Time | Temp. | Humidity | Pressure | Rain* | Wind** | Luminosity | Snow |
|---|---|---|---|---|---|---|---|
| 1778133057 | 18.89° C | 56% | 1002.7 hPa | 0 mm | - | - | - |
| 1778132757 | 18.89° C | 56% | 1002.7 hPa | 0 mm | - | - | - |
| 1778132457 | 18.89° C | 56% | 1002.8 hPa | 0 mm | - | - | - |
| 1778132157 | 18.33° C | 56% | 1002.5 hPa | 0 mm | - | - | - |
| 1778131857 | 18.33° C | 57% | 1002.6 hPa | 0 mm | - | - | - |
| 1778131557 | 18.33° C | 57% | 1002.6 hPa | 0 mm | - | - | - |
| 1778131257 | 18.33° C | 58% | 1002.6 hPa | 0 mm | - | - | - |
| 1778130957 | 18.33° C | 59% | 1002.7 hPa | 0 mm | - | - | - |
| 1778130657 | 17.78° C | 59% | 1002.6 hPa | 0 mm | - | - | - |
| 1778130358 | 17.78° C | 60% | 1002.6 hPa | 0 mm | - | - | - |
| 1778130057 | 17.78° C | 61% | 1002.6 hPa | 0 mm | - | - | - |
| 1778129758 | 17.22° C | 63% | 1002.5 hPa | 0 mm | - | - | - |
| 1778129457 | 16.67° C | 64% | 1002.5 hPa | 0 mm | - | - | - |
| 1778129157 | 16.11° C | 64% | 1002.4 hPa | 0 mm | - | - | - |
| 1778128858 | 16.11° C | 65% | 1002.3 hPa | 0 mm | - | - | - |
| 1778128558 | 16.11° C | 64% | 1002.3 hPa | 0 mm | - | - | - |
| 1778128257 | 16.11° C | 65% | 1002.4 hPa | 0 mm | - | - | - |
| 1778127957 | 15.56° C | 66% | 1002.2 hPa | 0 mm | - | - | - |
| 1778127657 | 15.56° C | 66% | 1002.3 hPa | 0 mm | - | - | - |
| 1778127358 | 15° C | 67% | 1002.2 hPa | 0 mm | - | - | - |
| 1778127058 | 14.44° C | 67% | 1002.3 hPa | 0 mm | - | - | - |
| 1778126758 | 13.33° C | 67% | 1002.2 hPa | 0 mm | - | - | - |
| 1778126458 | 13.33° C | 67% | 1002.2 hPa | 0 mm | - | - | - |
| 1778126158 | 12.78° C | 67% | 1002.1 hPa | 0 mm | - | - | - |
| 1778125858 | 12.22° C | 67% | 1002.1 hPa | 0 mm | - | - | - |
* Rain latest hour (hover to see other rain measurements)
** Current wind speed in m/s (hover to see current wind gust speed)